Time;durP1;ratioP1;P1;durP2;ratioP2;P2;SDS_P1;SDS_P2;PMS_P1;PMS_P2;Temp;Humidity;BMP_temperature;BMP_pressure;BME280_temperature;BME280_humidity;BME280_pressure;Samples;Min_cycle;Max_cycle;Signal;HPM_P1;HPM_P2
2023/04/14 00:01:34;;;;;;;;;;;;;;;1.08;57.40;102592.41;5075486;28;19991;-68
2023/04/14 00:04:01;;;;;;;;;;;;;;;1.06;57.27;102590.75;5075059;28;19916;-70
2023/04/14 00:06:27;;;;;;;;;;;;;;;1.02;57.67;102591.78;5074697;28;19964;-70
2023/04/14 00:08:52;;;;;;;;;;;;;;;0.99;57.50;102597.16;5075116;28;19940;-69
2023/04/14 00:11:17;;;;;;;;;;;;;;;0.97;58.09;102596.34;5075279;28;19918;-70
2023/04/14 00:13:43;;;;;;;;;;;;;;;0.99;57.79;102591.91;5076002;28;19935;-70
2023/04/14 00:16:10;;;;;;;;;;;;;;;0.96;57.91;102592.03;5077761;28;19919;-69
2023/04/14 00:18:35;;;;;;;;;;;;;;;0.95;58.24;102595.56;5077456;28;19912;-70
2023/04/14 00:21:01;;;;;;;;;;;;;;;0.88;58.08;102598.41;5077361;28;19957;-70
2023/04/14 00:23:27;;;;;;;;;;;;;;;0.90;58.07;102603.59;5078432;28;19912;-70
2023/04/14 00:25:52;;;;;;;;;;;;;;;0.90;58.71;102599.22;5074513;28;20360;-70
2023/04/14 00:28:17;;;;;;;;;;;;;;;0.85;58.52;102601.13;5090191;28;19934;-70
2023/04/14 00:30:43;;;;;;;;;;;;;;;0.84;58.52;102599.41;5096812;28;20011;-70
2023/04/14 00:33:08;;;;;;;;;;;;;;;0.82;59.08;102603.84;5089899;28;20282;-69
2023/04/14 00:35:33;;;;;;;;;;;;;;;0.81;58.88;102607.38;5087675;28;19912;-69
2023/04/14 00:37:59;;;;;;;;;;;;;;;0.79;59.38;102616.22;5082252;28;20348;-70
2023/04/14 00:40:24;;;;;;;;;;;;;;;0.75;59.55;102625.97;5076458;28;19913;-69
2023/04/14 00:42:50;;;;;;;;;;;;;;;0.77;59.38;102616.28;5076491;28;19963;-67
2023/04/14 00:45:15;;;;;;;;;;;;;;;0.75;59.52;102620.72;5075809;28;19944;-69
2023/04/14 00:47:41;;;;;;;;;;;;;;;0.70;60.10;102622.66;5074864;28;19963;-70
2023/04/14 00:50:10;;;;;;;;;;;;;;;0.69;60.39;102609.59;5074640;28;20338;-69
2023/04/14 00:52:36;;;;;;;;;;;;;;;0.66;60.79;102626.31;5074644;28;20324;-68
2023/04/14 00:55:03;;;;;;;;;;;;;;;0.64;60.45;102620.25;5074150;28;19916;-69
2023/04/14 00:57:29;;;;;;;;;;;;;;;0.65;60.50;102618.50;5074161;28;19920;-70
2023/04/14 00:59:56;;;;;;;;;;;;;;;0.64;60.84;102616.78;5074083;28;19916;-69
2023/04/14 01:02:21;;;;;;;;;;;;;;;0.62;60.51;102614.22;5073947;28;19962;-69
2023/04/14 01:04:47;;;;;;;;;;;;;;;0.61;60.49;102621.22;5074536;28;19956;-70
2023/04/14 01:07:13;;;;;;;;;;;;;;;0.56;60.99;102624.88;5074452;28;19917;-68
2023/04/14 01:09:38;;;;;;;;;;;;;;;0.58;60.91;102617.84;5074151;28;19913;-69
2023/04/14 01:12:15;;;;;;;;;;;;;;;0.55;61.11;102623.19;5073920;28;19919;-68
2023/04/14 01:14:49;;;;;;;;;;;;;;;0.56;61.00;102625.75;5073592;28;19920;-68
2023/04/14 01:17:31;;;;;;;;;;;;;;;0.52;61.20;102626.75;5073980;28;19923;-68
2023/04/14 01:19:57;;;;;;;;;;;;;;;0.50;61.10;102625.97;5073702;28;20038;-69
2023/04/14 01:22:24;;;;;;;;;;;;;;;0.49;61.83;102636.50;5073638;28;20408;-69
2023/04/14 01:24:58;;;;;;;;;;;;;;;0.49;61.62;102636.50;5073450;28;19912;-68
2023/04/14 01:27:30;;;;;;;;;;;;;;;0.46;61.56;102639.22;5073267;28;20348;-69
2023/04/14 01:29:55;;;;;;;;;;;;;;;0.45;61.61;102638.38;5073540;28;19913;-68
2023/04/14 01:32:22;;;;;;;;;;;;;;;0.41;61.48;102647.25;5073287;28;19965;-68
2023/04/14 01:34:52;;;;;;;;;;;;;;;0.38;61.97;102646.50;5073475;28;20344;-68
2023/04/14 01:37:24;;;;;;;;;;;;;;;0.37;62.26;102643.03;5073468;28;19913;-69
2023/04/14 01:39:51;;;;;;;;;;;;;;;0.36;62.01;102650.94;5073231;28;19916;-69
2023/04/14 01:42:19;;;;;;;;;;;;;;;0.35;61.84;102646.59;5073124;28;19920;-68
2023/04/14 01:44:45;;;;;;;;;;;;;;;0.34;62.23;102650.13;5072412;28;19924;-69
2023/04/14 01:47:12;;;;;;;;;;;;;;;0.31;61.77;102656.34;5073231;28;19987;-70
2023/04/14 01:49:39;;;;;;;;;;;;;;;0.30;62.02;102659.88;5072910;28;19919;-68
2023/04/14 01:52:08;;;;;;;;;;;;;;;0.29;62.54;102661.63;5073158;28;20011;-69
2023/04/14 01:54:35;;;;;;;;;;;;;;;0.29;61.76;102653.78;5072977;28;19951;-68
2023/04/14 01:57:01;;;;;;;;;;;;;;;0.23;62.43;102653.94;5073287;28;20356;-68
2023/04/14 01:59:27;;;;;;;;;;;;;;;0.21;62.82;102660.16;5055145;28;19912;-68
2023/04/14 02:01:54;;;;;;;;;;;;;;;0.19;62.69;102660.19;5073948;28;20020;-69
2023/04/14 02:04:21;;;;;;;;;;;;;;;0.19;62.61;102660.19;5072994;28;19916;-70
2023/04/14 02:06:48;;;;;;;;;;;;;;;0.14;62.87;102654.25;5072720;28;19917;-69
2023/04/14 02:09:14;;;;;;;;;;;;;;;0.11;62.74;102651.75;5072547;28;19912;-71
2023/04/14 02:11:41;;;;;;;;;;;;;;;0.11;62.60;102664.84;5073006;28;19912;-69
2023/04/14 02:14:06;;;;;;;;;;;;;;;0.11;62.81;102664.84;5072858;28;19916;-69
2023/04/14 02:16:32;;;;;;;;;;;;;;;0.08;62.55;102657.06;5072542;28;20267;-69
2023/04/14 02:18:59;;;;;;;;;;;;;;;0.04;62.88;102668.56;5072542;28;20418;-70
2023/04/14 02:21:25;;;;;;;;;;;;;;;0.07;62.77;102660.59;5072706;28;19913;-72
2023/04/14 02:23:50;;;;;;;;;;;;;;;0.05;62.72;102665.03;5072746;28;19918;-67
2023/04/14 02:26:17;;;;;;;;;;;;;;;0.04;62.63;102670.31;5072697;28;19924;-69
2023/04/14 02:29:06;;;;;;;;;;;;;;;0.02;63.14;102669.53;5072919;28;19923;-69
2023/04/14 02:31:32;;;;;;;;;;;;;;;0.02;63.01;102678.25;5072747;28;20007;-69
2023/04/14 02:33:59;;;;;;;;;;;;;;;-0.04;63.12;102670.53;5072410;28;19913;-69
2023/04/14 02:36:31;;;;;;;;;;;;;;;-0.08;63.61;102671.53;5072221;28;19912;-69
2023/04/14 02:39:01;;;;;;;;;;;;;;;-0.05;63.54;102674.06;5072562;28;19917;-72
2023/04/14 02:41:30;;;;;;;;;;;;;;;-0.05;63.46;102674.06;5072444;28;19923;-70
2023/04/14 02:44:14;;;;;;;;;;;;;;;-0.06;63.67;102672.34;5054848;28;19959;-73
2023/04/14 02:46:41;;;;;;;;;;;;;;;-0.05;63.45;102679.31;5072816;28;19916;-71
2023/04/14 02:49:09;;;;;;;;;;;;;;;-0.06;63.63;102677.59;5073588;28;19920;-72
2023/04/14 02:51:36;;;;;;;;;;;;;;;-0.06;63.55;102685.44;5074269;28;19912;-73
2023/04/14 02:54:03;;;;;;;;;;;;;;;-0.05;63.38;102679.31;5073217;28;20372;-70
2023/04/14 02:56:29;;;;;;;;;;;;;;;-0.04;63.16;102678.41;5059130;28;19918;-71
2023/04/14 02:58:55;;;;;;;;;;;;;;;-0.05;63.22;102684.53;5076910;28;19918;-71
2023/04/14 03:01:21;;;;;;;;;;;;;;;-0.08;63.51;102682.03;5058692;28;20434;-72
2023/04/14 03:03:47;;;;;;;;;;;;;;;-0.08;63.45;102684.66;5056327;28;19921;-70
2023/04/14 03:06:14;;;;;;;;;;;;;;;-0.02;63.05;102689.69;5038067;28;19916;-69
2023/04/14 03:08:40;;;;;;;;;;;;;;;-0.06;63.36;102698.53;5056114;28;20320;-68
2023/04/14 03:11:07;;;;;;;;;;;;;;;-0.03;62.87;102698.44;5056011;28;19919;-70
2023/04/14 03:13:33;;;;;;;;;;;;;;;0.01;62.46;102700.09;5038320;28;19913;-71
2023/04/14 03:15:59;;;;;;;;;;;;;;;0.01;63.36;102702.72;5038191;28;19919;-71
2023/04/14 03:18:25;;;;;;;;;;;;;;;0.00;63.15;102703.63;5056568;28;19913;-72
2023/04/14 03:20:54;;;;;;;;;;;;;;;-0.01;62.87;102704.50;5056756;28;19913;-70
2023/04/14 03:23:23;;;;;;;;;;;;;;;0.03;62.35;102702.66;5056008;28;19913;-69
2023/04/14 03:25:49;;;;;;;;;;;;;;;0.05;62.79;102709.56;5056038;28;20010;-68
2023/04/14 03:28:16;;;;;;;;;;;;;;;0.10;62.20;102707.66;5056955;28;20377;-69
2023/04/14 03:30:45;;;;;;;;;;;;;;;0.13;62.41;102712.81;5058074;28;20380;-68
2023/04/14 03:33:11;;;;;;;;;;;;;;;0.17;62.07;102710.94;5056778;28;19960;-69
2023/04/14 03:35:37;;;;;;;;;;;;;;;0.19;61.62;102709.97;5057104;28;19917;-69
2023/04/14 03:38:07;;;;;;;;;;;;;;;0.24;61.32;102707.22;5057413;28;19919;-69
2023/04/14 03:40:33;;;;;;;;;;;;;;;0.30;61.29;102718.38;5038833;28;19919;-69
2023/04/14 03:43:01;;;;;;;;;;;;;;;0.32;60.59;102718.34;5055921;28;19913;-71
2023/04/14 03:45:28;;;;;;;;;;;;;;;0.33;60.41;102719.19;5055770;28;19924;-71
2023/04/14 03:47:59;;;;;;;;;;;;;;;0.37;60.28;102728.66;5038410;28;19913;-69
2023/04/14 03:50:28;;;;;;;;;;;;;;;0.43;59.98;102731.09;5038755;28;19920;-68
2023/04/14 03:52:55;;;;;;;;;;;;;;;0.45;59.86;102721.41;5056478;28;19979;-70
2023/04/14 03:55:22;;;;;;;;;;;;;;;0.46;59.25;102730.97;5056747;28;19956;-71
2023/04/14 03:57:48;;;;;;;;;;;;;;;0.44;59.24;102723.16;5073102;28;19913;-69
2023/04/14 04:00:14;;;;;;;;;;;;;;;0.42;59.25;102732.84;5069455;28;19959;-69
2023/04/14 04:02:43;;;;;;;;;;;;;;;0.47;59.12;102740.56;5066096;28;19916;-70
2023/04/14 04:05:09;;;;;;;;;;;;;;;0.56;59.29;102738.47;5057515;28;19928;-69
2023/04/14 04:07:35;;;;;;;;;;;;;;;0.64;58.75;102734.78;5055947;28;19924;-69
2023/04/14 04:10:02;;;;;;;;;;;;;;;0.59;58.37;102743.66;5055677;28;19963;-70
2023/04/14 04:12:28;;;;;;;;;;;;;;;0.56;57.63;102740.25;5055956;28;19920;-70
2023/04/14 04:14:54;;;;;;;;;;;;;;;0.55;58.00;102743.78;5063670;28;19932;-74
2023/04/14 04:17:21;;;;;;;;;;;;;;;0.52;57.71;102729.00;5062495;28;20016;-69
2023/04/14 04:19:48;;;;;;;;;;;;;;;0.58;58.11;102733.22;5054803;28;19920;-71
2023/04/14 04:22:15;;;;;;;;;;;;;;;0.67;57.64;102742.53;5036899;28;20004;-71
2023/04/14 04:24:41;;;;;;;;;;;;;;;0.79;56.92;102742.97;5054990;28;19920;-71
2023/04/14 04:27:07;;;;;;;;;;;;;;;0.80;56.77;102739.44;5055045;28;19924;-71
2023/04/14 04:29:33;;;;;;;;;;;;;;;0.80;56.46;102751.69;5037177;28;20338;-71
2023/04/14 04:31:59;;;;;;;;;;;;;;;0.84;56.21;102735.81;5037116;28;19913;-71
2023/04/14 04:34:25;;;;;;;;;;;;;;;0.91;56.17;102755.69;5054451;28;20332;-71
2023/04/14 04:36:51;;;;;;;;;;;;;;;0.90;55.55;102755.75;5054323;28;19931;-70
2023/04/14 04:39:16;;;;;;;;;;;;;;;0.91;55.86;102745.19;5054466;28;20019;-70
2023/04/14 04:41:41;;;;;;;;;;;;;;;1.04;55.79;102748.25;5036770;28;19960;-69
2023/04/14 04:44:07;;;;;;;;;;;;;;;1.10;54.73;102750.66;5054358;28;19940;-70
2023/04/14 04:46:41;;;;;;;;;;;;;;;1.09;54.47;102746.31;5055006;28;19916;-70
2023/04/14 04:49:06;;;;;;;;;;;;;;;1.17;55.34;102741.69;5056523;28;19920;-70
2023/04/14 04:51:31;;;;;;;;;;;;;;;1.21;53.86;102753.78;5055684;28;19917;-71
2023/04/14 04:53:57;;;;;;;;;;;;;;;1.09;53.71;102753.34;5054228;28;19913;-70
2023/04/14 04:56:22;;;;;;;;;;;;;;;1.07;53.75;102756.00;5055223;28;20011;-72
2023/04/14 04:58:47;;;;;;;;;;;;;;;1.06;54.10;102750.81;5054773;28;20009;-71
2023/04/14 05:01:15;;;;;;;;;;;;;;;1.09;53.80;102753.34;5053988;28;19913;-72
2023/04/14 05:03:42;;;;;;;;;;;;;;;1.10;53.77;102744.56;5053612;28;19963;-69
2023/04/14 05:06:09;;;;;;;;;;;;;;;1.18;53.50;102750.41;5053389;28;19917;-71
2023/04/14 05:08:34;;;;;;;;;;;;;;;1.26;53.20;102753.63;5054165;28;19978;-70
2023/04/14 05:10:59;;;;;;;;;;;;;;;1.30;53.56;102757.84;5054192;28;19917;-70
2023/04/14 05:13:25;;;;;;;;;;;;;;;1.30;53.52;102754.38;5036502;28;19921;-71
2023/04/14 05:15:50;;;;;;;;;;;;;;;1.22;52.92;102763.38;5053937;28;19912;-70
2023/04/14 05:18:16;;;;;;;;;;;;;;;1.14;52.73;102768.00;5052795;28;19921;-70
2023/04/14 05:20:41;;;;;;;;;;;;;;;1.13;53.01;102765.44;5053138;28;19917;-69
2023/04/14 05:23:07;;;;;;;;;;;;;;;1.23;53.21;102764.22;5019190;28;19913;-74
2023/04/14 05:25:33;;;;;;;;;;;;;;;1.23;52.51;102765.09;5036041;28;20384;-71
2023/04/14 05:27:58;;;;;;;;;;;;;;;1.17;52.65;102764.44;5035828;28;19913;-70
2023/04/14 05:30:25;;;;;;;;;;;;;;;1.20;52.46;102770.44;5053549;28;19912;-69
2023/04/14 05:32:50;;;;;;;;;;;;;;;1.13;52.13;102773.31;5035482;28;19913;-70
2023/04/14 05:35:16;;;;;;;;;;;;;;;1.20;52.21;102766.97;5035312;28;19917;-71
2023/04/14 05:37:41;;;;;;;;;;;;;;;1.32;51.99;102769.13;5053644;28;20011;-73
2023/04/14 05:40:07;;;;;;;;;;;;;;;1.33;52.05;102765.59;5019044;28;19913;-71
2023/04/14 05:42:32;;;;;;;;;;;;;;;1.35;51.22;102768.19;5053567;28;19920;-72
2023/04/14 05:44:57;;;;;;;;;;;;;;;1.37;51.38;102771.59;5053188;28;19912;-69
2023/04/14 05:47:24;;;;;;;;;;;;;;;1.42;50.83;102764.41;5052979;28;19923;-70
2023/04/14 05:49:50;;;;;;;;;;;;;;;1.47;51.06;102763.34;5053273;28;19913;-71
2023/04/14 05:52:15;;;;;;;;;;;;;;;1.58;50.89;102764.72;5053129;28;19913;-71
2023/04/14 05:54:40;;;;;;;;;;;;;;;1.59;50.37;102759.41;5055730;28;19912;-71
2023/04/14 05:57:06;;;;;;;;;;;;;;;1.49;49.76;102763.31;5053232;28;20352;-69
2023/04/14 05:59:31;;;;;;;;;;;;;;;1.46;49.77;102761.66;5052953;28;20102;-70
2023/04/14 06:01:56;;;;;;;;;;;;;;;1.55;50.46;102752.56;5052763;28;19913;-70
2023/04/14 06:04:22;;;;;;;;;;;;;;;1.52;49.88;102753.53;5035318;28;20339;-71
2023/04/14 06:06:50;;;;;;;;;;;;;;;1.51;49.88;102754.47;5052552;28;19920;-69
2023/04/14 06:09:15;;;;;;;;;;;;;;;1.58;50.13;102743.72;5052742;28;19917;-69
2023/04/14 06:11:41;;;;;;;;;;;;;;;1.72;49.84;102747.53;5053007;28;20444;-71
2023/04/14 06:14:07;;;;;;;;;;;;;;;1.77;49.12;102744.75;5053150;28;19924;-72
2023/04/14 06:16:32;;;;;;;;;;;;;;;1.72;49.44;102744.06;5034594;28;19913;-70
2023/04/14 06:18:57;;;;;;;;;;;;;;;1.75;49.09;102747.44;5051183;28;19913;-71
2023/04/14 06:21:23;;;;;;;;;;;;;;;1.73;48.41;102743.13;5052494;28;19920;-70
2023/04/14 06:23:48;;;;;;;;;;;;;;;1.81;49.21;102746.34;5052566;28;19966;-72
2023/04/14 06:26:14;;;;;;;;;;;;;;;1.98;48.70;102753.59;5052187;28;20423;-70
2023/04/14 06:28:39;;;;;;;;;;;;;;;2.15;48.48;102752.03;5053130;28;20372;-70
2023/04/14 06:31:05;;;;;;;;;;;;;;;2.34;47.71;102754.81;5052091;28;19913;-69
2023/04/14 06:33:30;;;;;;;;;;;;;;;2.40;47.53;102749.28;5052210;28;19913;-71
2023/04/14 06:35:56;;;;;;;;;;;;;;;2.36;46.88;102760.84;5052129;28;19925;-71
2023/04/14 06:38:23;;;;;;;;;;;;;;;2.23;47.52;102764.00;5052693;28;19913;-70
2023/04/14 06:40:48;;;;;;;;;;;;;;;2.20;47.16;102764.13;5052251;28;19959;-70
2023/04/14 06:43:16;;;;;;;;;;;;;;;2.29;47.02;102764.63;5052420;28;19956;-71
2023/04/14 06:45:42;;;;;;;;;;;;;;;2.26;47.12;102771.78;5050733;28;19913;-69
2023/04/14 06:48:07;;;;;;;;;;;;;;;2.37;46.89;102765.19;5052031;28;19978;-71
2023/04/14 06:50:35;;;;;;;;;;;;;;;2.48;46.69;102770.00;5034798;28;20268;-71
2023/04/14 06:53:03;;;;;;;;;;;;;;;2.38;46.11;102768.69;5052699;28;20000;-70
2023/04/14 06:55:29;;;;;;;;;;;;;;;2.38;46.66;102764.28;5034712;28;19912;-70
2023/04/14 06:57:54;;;;;;;;;;;;;;;2.45;46.64;102759.63;5052089;28;19920;-70
2023/04/14 07:00:20;;;;;;;;;;;;;;;2.52;46.40;102770.75;5052186;28;19913;-71
2023/04/14 07:02:45;;;;;;;;;;;;;;;2.45;45.86;102759.63;5051706;28;20042;-71
2023/04/14 07:05:11;;;;;;;;;;;;;;;2.41;45.84;102758.03;5052061;28;20023;-69
2023/04/14 07:07:39;;;;;;;;;;;;;;;2.33;45.55;102765.38;5034511;28;20014;-70
2023/04/14 07:10:04;;;;;;;;;;;;;;;2.34;45.92;102754.81;5035587;28;19919;-69
2023/04/14 07:12:30;;;;;;;;;;;;;;;2.39;46.28;102765.13;5054672;28;19912;-69
2023/04/14 07:14:55;;;;;;;;;;;;;;;2.41;46.10;102760.66;5057714;28;19912;-70
2023/04/14 07:17:21;;;;;;;;;;;;;;;2.48;46.39;102764.75;5061997;28;19917;-69
2023/04/14 07:19:46;;;;;;;;;;;;;;;2.48;46.39;102754.22;5054354;28;20364;-72
2023/04/14 07:22:11;;;;;;;;;;;;;;;2.57;46.47;102763.50;5053872;28;19919;-68
2023/04/14 07:24:37;;;;;;;;;;;;;;;2.52;46.04;102763.72;5053251;28;20058;-71
2023/04/14 07:27:02;;;;;;;;;;;;;;;2.51;46.08;102762.00;5053449;28;20256;-69
2023/04/14 07:29:32;;;;;;;;;;;;;;;2.44;45.99;102757.91;5052614;28;19912;-70
2023/04/14 07:31:57;;;;;;;;;;;;;;;2.46;46.12;102767.44;5051635;28;19924;-68
2023/04/14 07:34:22;;;;;;;;;;;;;;;2.54;46.25;102764.50;5051631;28;19912;-69
2023/04/14 07:36:48;;;;;;;;;;;;;;;2.62;45.64;102757.19;5051732;28;20008;-68
2023/04/14 07:39:13;;;;;;;;;;;;;;;2.61;44.94;102760.72;5051722;28;19920;-68
2023/04/14 07:41:40;;;;;;;;;;;;;;;2.67;45.48;102763.09;5052252;28;19948;-68
2023/04/14 07:44:05;;;;;;;;;;;;;;;2.73;45.01;102764.63;5055774;28;19913;-67
2023/04/14 07:46:30;;;;;;;;;;;;;;;2.79;44.79;102764.34;5055545;28;20375;-69
2023/04/14 07:48:56;;;;;;;;;;;;;;;2.87;45.21;102762.25;5055835;28;20376;-68
2023/04/14 07:51:21;;;;;;;;;;;;;;;2.90;44.08;102767.41;5054329;28;20002;-69
2023/04/14 07:53:47;;;;;;;;;;;;;;;2.94;43.88;102778.66;5054385;28;19913;-69
2023/04/14 07:56:12;;;;;;;;;;;;;;;2.91;44.07;102768.28;5055103;28;19924;-69
2023/04/14 07:58:38;;;;;;;;;;;;;;;2.93;43.98;102769.06;5053078;28;19924;-68
2023/04/14 08:01:04;;;;;;;;;;;;;;;2.95;43.43;102769.84;5063997;28;19917;-70
2023/04/14 08:03:29;;;;;;;;;;;;;;;2.94;42.93;102774.25;5065401;28;19916;-68
2023/04/14 08:05:56;;;;;;;;;;;;;;;2.98;43.58;102774.97;5078577;28;19923;-68
2023/04/14 08:08:22;;;;;;;;;;;;;;;2.88;43.54;102768.38;5076766;28;19927;-70
2023/04/14 08:10:47;;;;;;;;;;;;;;;2.96;43.73;102766.28;5096798;28;19916;-68
2023/04/14 08:13:12;;;;;;;;;;;;;;;3.01;43.39;102767.81;5096556;28;19912;-69
2023/04/14 08:15:38;;;;;;;;;;;;;;;3.05;43.22;102763.25;5095448;28;19954;-68
2023/04/14 08:18:03;;;;;;;;;;;;;;;3.13;42.92;102768.19;5096290;28;20433;-68
2023/04/14 08:20:28;;;;;;;;;;;;;;;3.13;43.33;102763.78;5096617;28;19912;-69
2023/04/14 08:22:55;;;;;;;;;;;;;;;3.25;43.32;102763.28;5096572;28;20413;-70
2023/04/14 08:25:20;;;;;;;;;;;;;;;3.37;42.98;102770.63;5096351;28;20006;-70
2023/04/14 08:27:46;;;;;;;;;;;;;;;3.41;42.02;102772.19;5095422;28;20368;-67
2023/04/14 08:30:11;;;;;;;;;;;;;;;3.36;41.58;102760.16;5077944;28;19916;-69
2023/04/14 08:32:36;;;;;;;;;;;;;;;3.49;42.12;102765.75;5095158;28;19916;-69
2023/04/14 08:35:02;;;;;;;;;;;;;;;3.50;41.03;102762.19;5096006;28;20054;-68
2023/04/14 08:37:28;;;;;;;;;;;;;;;3.58;41.39;102765.34;5095762;28;19920;-70
2023/04/14 08:39:54;;;;;;;;;;;;;;;3.60;41.03;102759.06;5077650;28;19912;-68
2023/04/14 08:42:20;;;;;;;;;;;;;;;3.71;41.10;102771.75;5096069;28;20272;-69
2023/04/14 08:44:46;;;;;;;;;;;;;;;3.74;40.07;102758.44;5095529;28;19912;-70
2023/04/14 08:47:12;;;;;;;;;;;;;;;3.69;40.31;102757.81;5095728;28;19927;-69
2023/04/14 08:49:44;;;;;;;;;;;;;;;3.80;40.07;102758.19;5096373;28;19949;-70
2023/04/14 08:52:11;;;;;;;;;;;;;;;3.92;39.31;102754.97;5096743;28;19912;-69
2023/04/14 08:54:38;;;;;;;;;;;;;;;3.96;38.98;102761.81;5096071;28;20015;-69
2023/04/14 08:57:05;;;;;;;;;;;;;;;3.94;39.08;102758.38;5095709;28;19951;-67
2023/04/14 08:59:30;;;;;;;;;;;;;;;3.87;39.04;102758.75;5078090;28;20245;-68
2023/04/14 09:01:56;;;;;;;;;;;;;;;3.86;38.98;102754.41;5095781;28;19912;-66
2023/04/14 09:04:22;;;;;;;;;;;;;;;3.88;38.60;102756.03;5095768;28;19928;-66
2023/04/14 09:06:47;;;;;;;;;;;;;;;3.95;38.65;102748.69;5095655;28;19916;-66
2023/04/14 09:09:14;;;;;;;;;;;;;;;3.86;38.91;102738.59;5096402;28;20010;-69
2023/04/14 09:11:39;;;;;;;;;;;;;;;4.07;38.05;102742.88;5096307;28;19919;-67
2023/04/14 09:14:04;;;;;;;;;;;;;;;4.23;38.01;102745.63;5095534;28;19916;-65
2023/04/14 09:16:31;;;;;;;;;;;;;;;4.23;37.24;102743.84;5095766;28;19918;-67
2023/04/14 09:18:56;;;;;;;;;;;;;;;4.34;38.31;102744.19;5096372;28;19912;-67
2023/04/14 09:21:22;;;;;;;;;;;;;;;4.46;37.92;102748.00;5096869;28;20320;-66
2023/04/14 09:23:48;;;;;;;;;;;;;;;4.52;37.24;102750.34;5096095;28;19916;-67
2023/04/14 09:26:13;;;;;;;;;;;;;;;4.58;38.05;102744.75;5095731;28;20348;-66
2023/04/14 09:28:39;;;;;;;;;;;;;;;4.57;37.30;102747.47;5094886;28;20014;-67
2023/04/14 09:31:04;;;;;;;;;;;;;;;4.50;37.58;102740.78;5094721;28;20351;-67
2023/04/14 09:33:31;;;;;;;;;;;;;;;4.42;36.90;102742.97;5094914;28;19981;-67
2023/04/14 09:35:56;;;;;;;;;;;;;;;4.47;37.00;102731.25;5095348;28;19919;-68
2023/04/14 09:38:37;;;;;;;;;;;;;;;4.50;36.57;102730.25;5047871;28;19913;-67
2023/04/14 09:41:06;;;;;;;;;;;;;;;4.53;36.77;102724.81;5063014;28;19917;-67
2023/04/14 09:43:31;;;;;;;;;;;;;;;4.64;36.59;102738.34;5064813;28;19920;-67
2023/04/14 09:46:03;;;;;;;;;;;;;;;4.55;36.11;102739.63;5063280;28;20023;-66
2023/04/14 09:48:28;;;;;;;;;;;;;;;4.55;36.62;102729.09;5045197;28;19952;-68
2023/04/14 09:51:05;;;;;;;;;;;;;;;4.56;36.42;102741.34;5065481;28;20275;-67
2023/04/14 09:53:32;;;;;;;;;;;;;;;4.66;36.78;102758.44;5068416;28;19977;-67
2023/04/14 09:56:02;;;;;;;;;;;;;;;4.75;36.53;102740.44;5072978;28;19923;-67
2023/04/14 09:58:34;;;;;;;;;;;;;;;4.73;36.49;102737.03;5044923;28;19916;-69
2023/04/14 10:01:04;;;;;;;;;;;;;;;4.66;36.86;102750.53;5061183;28;20003;-67
2023/04/14 10:06:30;;;;;;;;;;;;;;;4.75;37.91;102729.88;5060293;28;19916;-68
2023/04/14 10:08:56;;;;;;;;;;;;;;;4.79;38.08;102742.00;5061190;28;19928;-66
2023/04/14 10:11:25;;;;;;;;;;;;;;;4.90;38.05;102745.78;5061281;28;19913;-68
2023/04/14 10:13:55;;;;;;;;;;;;;;;4.95;38.00;102758.78;5062289;28;20433;-67
2023/04/14 10:16:21;;;;;;;;;;;;;;;4.95;37.68;102751.72;5061288;28;19933;-68
2023/04/14 10:18:46;;;;;;;;;;;;;;;4.91;38.36;102746.63;5060479;28;19917;-70
2023/04/14 10:21:12;;;;;;;;;;;;;;;4.92;38.89;102743.09;5063747;28;19958;-69
2023/04/14 10:23:40;;;;;;;;;;;;;;;5.06;38.64;102750.31;5061205;28;19919;-68
2023/04/14 10:26:06;;;;;;;;;;;;;;;5.16;38.13;102752.38;5066229;28;19913;-69
2023/04/14 10:28:33;;;;;;;;;;;;;;;5.22;37.34;102757.38;5076221;28;19919;-69
2023/04/14 10:31:00;;;;;;;;;;;;;;;5.23;37.55;102748.50;5077580;28;20003;-71
2023/04/14 10:33:28;;;;;;;;;;;;;;;5.23;38.24;102759.09;5050551;28;19965;-68
2023/04/14 10:36:02;;;;;;;;;;;;;;;5.20;36.95;102784.78;5046254;28;20014;-69
2023/04/14 10:38:41;;;;;;;;;;;;;;;4.98;37.17;102758.63;5048291;28;19920;-68
2023/04/14 10:41:07;;;;;;;;;;;;;;;4.91;37.78;102744.84;5072480;28;20368;-69
2023/04/14 10:43:34;;;;;;;;;;;;;;;4.98;37.70;102754.19;5067083;28;20020;-69
2023/04/14 10:45:59;;;;;;;;;;;;;;;5.05;37.51;102757.38;5043601;28;20318;-68
2023/04/14 10:48:27;;;;;;;;;;;;;;;5.14;37.73;102742.84;5065862;28;19913;-69
2023/04/14 10:51:04;;;;;;;;;;;;;;;5.09;37.05;102753.63;5049435;28;20284;-69
2023/04/14 10:53:51;;;;;;;;;;;;;;;5.10;37.41;102742.16;5054959;28;19912;-68
2023/04/14 10:56:18;;;;;;;;;;;;;;;5.04;36.78;102758.31;5052057;28;19963;-68
2023/04/14 10:58:53;;;;;;;;;;;;;;;5.10;37.04;102758.00;5051935;28;19917;-68
2023/04/14 11:01:24;;;;;;;;;;;;;;;5.25;37.41;102751.94;5052199;28;19920;-68
2023/04/14 11:03:50;;;;;;;;;;;;;;;5.31;37.04;102755.19;5052683;28;20260;-68
2023/04/14 11:06:34;;;;;;;;;;;;;;;5.26;36.69;102758.91;5052233;28;19917;-68
2023/04/14 11:08:59;;;;;;;;;;;;;;;5.33;37.09;102763.88;5051954;28;19919;-68
2023/04/14 11:11:27;;;;;;;;;;;;;;;5.37;36.65;102755.72;5052227;28;19913;-69
2023/04/14 11:14:11;;;;;;;;;;;;;;;5.41;37.04;102751.13;5052168;28;19919;-67
2023/04/14 11:16:38;;;;;;;;;;;;;;;5.51;36.49;102769.06;5052323;28;20311;-68
2023/04/14 11:19:12;;;;;;;;;;;;;;;5.49;36.30;102754.19;5055925;28;20395;-69
2023/04/14 11:21:46;;;;;;;;;;;;;;;5.52;36.64;102748.78;5056079;28;19913;-68
2023/04/14 11:24:12;;;;;;;;;;;;;;;5.65;36.63;102744.53;5056053;28;19919;-68
2023/04/14 11:26:39;;;;;;;;;;;;;;;5.75;35.81;102740.44;5055981;28;19924;-68
2023/04/14 11:29:07;;;;;;;;;;;;;;;5.68;35.51;102749.66;5055800;28;20411;-67
2023/04/14 11:31:32;;;;;;;;;;;;;;;5.64;36.39;102740.19;5055645;28;20311;-68
2023/04/14 11:33:57;;;;;;;;;;;;;;;5.71;36.37;102736.25;5055545;28;19927;-69
2023/04/14 11:36:23;;;;;;;;;;;;;;;5.73;36.11;102734.38;5055804;28;19913;-69
2023/04/14 11:38:48;;;;;;;;;;;;;;;5.78;35.76;102732.38;5053838;28;20316;-68
2023/04/14 11:41:14;;;;;;;;;;;;;;;5.80;35.43;102732.28;5065452;28;19912;-67
2023/04/14 11:43:45;;;;;;;;;;;;;;;5.84;35.82;102729.38;5073468;28;20023;-67
2023/04/14 11:46:11;;;;;;;;;;;;;;;5.85;35.45;102733.75;5051240;28;19913;-68
2023/04/14 11:48:36;;;;;;;;;;;;;;;5.88;35.23;102730.91;5064685;28;19919;-67
2023/04/14 11:51:02;;;;;;;;;;;;;;;5.90;35.21;102722.94;5032592;28;19924;-69
2023/04/14 11:53:28;;;;;;;;;;;;;;;5.94;35.12;102734.19;5044995;28;20364;-68
2023/04/14 11:55:53;;;;;;;;;;;;;;;5.84;34.74;102739.97;5065202;28;19920;-68
2023/04/14 11:58:23;;;;;;;;;;;;;;;5.82;34.79;102731.25;5066598;28;20287;-70
2023/04/14 12:00:49;;;;;;;;;;;;;;;5.85;34.39;102730.25;5066612;28;20429;-67
2023/04/14 12:03:14;;;;;;;;;;;;;;;5.88;34.79;102730.91;5043674;28;19995;-67
2023/04/14 12:05:40;;;;;;;;;;;;;;;5.92;34.50;102736.06;5048690;28;19960;-69
2023/04/14 12:08:07;;;;;;;;;;;;;;;5.88;34.61;102722.13;5063381;28;19913;-68
2023/04/14 12:10:36;;;;;;;;;;;;;;;5.93;35.11;102733.34;5066210;28;19912;-69
2023/04/14 12:13:05;;;;;;;;;;;;;;;6.06;35.22;102723.78;5045447;28;20380;-69
2023/04/14 12:15:32;;;;;;;;;;;;;;;6.20;34.71;102720.38;5064358;28;19974;-67
2023/04/14 12:17:58;;;;;;;;;;;;;;;6.19;34.84;102713.38;5046239;28;20372;-70
2023/04/14 12:20:24;;;;;;;;;;;;;;;6.24;34.52;102721.91;5065748;28;19913;-68
2023/04/14 12:22:50;;;;;;;;;;;;;;;6.18;33.51;102722.25;5051209;28;20378;-68
2023/04/14 12:25:15;;;;;;;;;;;;;;;6.05;33.83;102710.63;5066895;28;19919;-68
2023/04/14 12:27:41;;;;;;;;;;;;;;;6.01;33.46;102714.41;5064497;28;20524;-70
2023/04/14 12:30:08;;;;;;;;;;;;;;;6.03;33.91;102701.94;5062924;28;19917;-69
2023/04/14 12:32:38;;;;;;;;;;;;;;;6.12;34.73;102702.28;5042972;28;19912;-69
2023/04/14 12:35:04;;;;;;;;;;;;;;;6.14;34.23;102705.69;5059638;28;19993;-69
2023/04/14 12:37:29;;;;;;;;;;;;;;;6.14;34.57;102695.13;5064436;28;19916;-70
2023/04/14 12:40:05;;;;;;;;;;;;;;;6.10;34.43;102698.03;5064666;28;19958;-68
2023/04/14 12:42:44;;;;;;;;;;;;;;;6.19;34.39;102694.84;5064879;28;19916;-68
2023/04/14 12:45:10;;;;;;;;;;;;;;;6.21;33.81;102700.91;5062579;28;20019;-68
2023/04/14 12:47:36;;;;;;;;;;;;;;;6.25;33.87;102691.84;5063891;28;20007;-70